createdAt,value
2023-04-15T00:01:10.160Z,5.90
2023-04-15T00:03:37.187Z,5.90
2023-04-15T00:06:04.282Z,5.90
2023-04-15T00:08:31.208Z,6.00
2023-04-15T00:11:02.720Z,5.90
2023-04-15T00:13:29.769Z,5.90
2023-04-15T00:15:56.494Z,5.90
2023-04-15T00:18:24.014Z,6.00
2023-04-15T00:20:50.770Z,6.00
2023-04-15T00:23:17.995Z,6.00
2023-04-15T00:25:44.925Z,6.00
2023-04-15T00:28:11.738Z,6.00
2023-04-15T00:30:39.089Z,6.00
2023-04-15T00:33:05.827Z,6.00
2023-04-15T00:35:36.678Z,6.00
2023-04-15T00:38:04.744Z,6.00
2023-04-15T00:40:31.677Z,6.00
2023-04-15T00:42:58.400Z,6.00
2023-04-15T00:45:26.293Z,6.00
2023-04-15T00:47:53.044Z,6.00
2023-04-15T00:50:19.911Z,6.00
2023-04-15T00:52:46.816Z,6.00
2023-04-15T00:55:13.939Z,6.00
2023-04-15T00:57:41.277Z,6.00
2023-04-15T01:00:09.343Z,6.00
2023-04-15T01:02:37.087Z,5.90
2023-04-15T01:05:04.588Z,5.90
2023-04-15T01:07:31.946Z,5.90
2023-04-15T01:09:59.093Z,5.90
2023-04-15T01:12:27.504Z,6.00
2023-04-15T01:14:55.411Z,6.00
2023-04-15T01:17:22.225Z,6.00
2023-04-15T01:19:49.264Z,6.00
2023-04-15T01:22:16.460Z,6.00
2023-04-15T01:24:55.338Z,6.00
2023-04-15T01:27:22.681Z,6.00
2023-04-15T01:29:49.368Z,6.00
2023-04-15T01:32:16.436Z,6.00
2023-04-15T01:34:43.157Z,6.00
2023-04-15T01:37:09.907Z,6.00
2023-04-15T01:39:36.613Z,5.90
2023-04-15T01:42:04.099Z,5.90
2023-04-15T01:44:31.032Z,5.90
2023-04-15T01:46:57.819Z,6.00
2023-04-15T01:49:24.542Z,6.00
2023-04-15T01:51:51.240Z,6.00
2023-04-15T01:54:18.075Z,6.00
2023-04-15T01:56:44.836Z,6.00
2023-04-15T01:59:11.580Z,5.90
2023-04-15T02:01:39.009Z,6.00
2023-04-15T02:04:06.338Z,6.00
2023-04-15T02:06:33.333Z,6.00
2023-04-15T02:09:00.394Z,6.00
2023-04-15T02:11:27.309Z,6.00
2023-04-15T02:13:54.031Z,6.00
2023-04-15T02:16:21.337Z,6.00
2023-04-15T02:18:48.245Z,6.00
2023-04-15T02:21:15.105Z,6.00
2023-04-15T02:23:41.952Z,6.00
2023-04-15T02:26:08.643Z,6.00
2023-04-15T02:28:35.866Z,6.00
2023-04-15T02:31:06.661Z,6.00
2023-04-15T02:33:33.835Z,6.00
2023-04-15T02:36:01.063Z,6.00
2023-04-15T02:38:27.842Z,6.00
2023-04-15T02:40:54.622Z,6.00
2023-04-15T02:43:21.309Z,6.00
2023-04-15T02:45:48.644Z,6.00
2023-04-15T02:48:17.992Z,6.00
2023-04-15T02:50:45.875Z,6.00
2023-04-15T02:53:13.440Z,6.00
2023-04-15T02:55:40.746Z,6.00
2023-04-15T02:58:07.557Z,6.00
2023-04-15T03:00:34.306Z,6.00
2023-04-15T03:03:04.436Z,5.90
2023-04-15T03:05:31.494Z,5.90
2023-04-15T03:07:58.241Z,5.90
2023-04-15T03:10:25.481Z,5.90
2023-04-15T03:12:52.168Z,5.90
2023-04-15T03:15:18.912Z,5.90
2023-04-15T03:17:45.900Z,5.90
2023-04-15T03:20:13.275Z,5.90
2023-04-15T03:22:40.008Z,5.90
2023-04-15T03:25:06.947Z,6.00
2023-04-15T03:27:33.667Z,5.90
2023-04-15T03:30:00.479Z,6.00
2023-04-15T03:32:27.292Z,5.90
2023-04-15T03:34:54.052Z,6.00
2023-04-15T03:37:21.016Z,6.00
2023-04-15T03:39:47.830Z,6.00
2023-04-15T03:42:14.564Z,6.00
2023-04-15T03:44:41.360Z,6.00
2023-04-15T03:47:08.570Z,6.00
2023-04-15T03:49:36.097Z,6.00
2023-04-15T03:52:02.797Z,6.00
2023-04-15T03:54:29.601Z,6.00
2023-04-15T03:56:56.781Z,5.90
2023-04-15T03:59:23.534Z,5.90
2023-04-15T04:01:50.936Z,5.90
2023-04-15T04:04:18.025Z,5.90
2023-04-15T04:06:44.886Z,5.90
2023-04-15T04:09:11.606Z,5.90
2023-04-15T04:11:38.331Z,5.90
2023-04-15T04:14:05.628Z,5.90
2023-04-15T04:16:32.441Z,5.90
2023-04-15T04:18:59.379Z,5.90
2023-04-15T04:21:26.789Z,5.90
2023-04-15T04:23:53.540Z,5.90
2023-04-15T04:26:20.655Z,5.90
2023-04-15T04:28:47.346Z,5.90
2023-04-15T04:31:14.099Z,5.90
2023-04-15T04:33:40.921Z,5.90
2023-04-15T04:36:07.949Z,5.90
2023-04-15T04:38:34.676Z,5.90
2023-04-15T04:41:01.548Z,5.90
2023-04-15T04:43:28.312Z,5.90
2023-04-15T04:45:55.100Z,5.90
2023-04-15T04:48:21.834Z,5.90
2023-04-15T04:50:48.765Z,5.90
2023-04-15T04:53:16.119Z,6.00
2023-04-15T04:55:42.866Z,6.00
2023-04-15T04:58:09.597Z,6.00
2023-04-15T05:00:37.953Z,6.00
2023-04-15T05:03:04.994Z,6.00
2023-04-15T05:05:32.067Z,6.00
2023-04-15T05:07:58.859Z,6.10
2023-04-15T05:10:25.707Z,6.10
2023-04-15T05:12:52.695Z,6.10
2023-04-15T05:15:19.503Z,6.10
2023-04-15T05:17:46.787Z,6.20
2023-04-15T05:20:13.850Z,6.20
2023-04-15T05:22:41.039Z,6.20
2023-04-15T05:25:08.714Z,6.20
2023-04-15T05:27:35.698Z,6.20
2023-04-15T05:30:02.639Z,6.30
2023-04-15T05:32:29.384Z,6.30
2023-04-15T05:34:56.303Z,6.30
2023-04-15T05:37:23.087Z,6.30
2023-04-15T05:39:49.830Z,6.30
2023-04-15T05:42:16.781Z,6.30
2023-04-15T05:44:43.589Z,6.30
2023-04-15T05:47:10.938Z,6.40
2023-04-15T05:49:37.731Z,6.30
2023-04-15T05:52:04.611Z,6.30
2023-04-15T05:54:31.638Z,6.30
2023-04-15T05:56:58.998Z,6.30
2023-04-15T05:59:25.986Z,6.30
2023-04-15T06:01:53.071Z,6.40
2023-04-15T06:04:20.061Z,6.40
2023-04-15T06:06:47.214Z,6.40
2023-04-15T06:09:14.035Z,6.40
2023-04-15T06:11:41.435Z,6.50
2023-04-15T06:14:08.385Z,6.50
2023-04-15T06:16:36.681Z,6.50
2023-04-15T06:19:04.050Z,6.50
2023-04-15T06:21:31.595Z,6.60
2023-04-15T06:24:00.210Z,6.60
2023-04-15T06:26:27.197Z,6.60
2023-04-15T06:28:54.055Z,6.60
2023-04-15T06:31:20.804Z,6.70
2023-04-15T06:33:47.520Z,6.70
2023-04-15T06:36:14.253Z,6.80
2023-04-15T06:38:40.937Z,6.80
2023-04-15T06:41:07.967Z,6.90
2023-04-15T06:43:35.083Z,6.90
2023-04-15T06:46:02.343Z,7.00
2023-04-15T06:48:29.107Z,7.10
2023-04-15T06:50:56.328Z,7.10
2023-04-15T06:53:23.136Z,7.20
2023-04-15T06:55:49.837Z,7.30
2023-04-15T06:58:17.133Z,7.40
2023-04-15T07:00:44.609Z,7.50
2023-04-15T07:03:12.875Z,7.50
2023-04-15T07:05:39.774Z,7.60
2023-04-15T07:08:06.859Z,7.70
2023-04-15T07:10:37.124Z,7.90
2023-04-15T07:13:04.244Z,8.00
2023-04-15T07:15:30.973Z,8.10
2023-04-15T07:17:57.793Z,8.30
2023-04-15T07:20:24.487Z,8.50
2023-04-15T07:22:51.269Z,8.80
2023-04-15T07:25:18.977Z,9.10
2023-04-15T07:27:46.372Z,9.50
2023-04-15T07:30:13.429Z,9.90
2023-04-15T07:32:40.597Z,10.20
2023-04-15T07:35:07.832Z,10.60
2023-04-15T07:37:34.603Z,11.00
2023-04-15T07:40:01.857Z,11.50
2023-04-15T07:42:29.350Z,12.00
2023-04-15T07:44:56.642Z,12.40
2023-04-15T07:47:23.457Z,12.80
2023-04-15T07:49:51.501Z,13.00
2023-04-15T07:52:18.671Z,13.20
2023-04-15T07:54:45.722Z,13.40
2023-04-15T07:57:12.437Z,13.50
2023-04-15T07:59:39.267Z,13.80
2023-04-15T08:02:06.174Z,14.00
2023-04-15T08:04:33.986Z,14.30
2023-04-15T08:07:00.937Z,14.60
2023-04-15T08:09:27.645Z,15.20
2023-04-15T08:11:54.540Z,16.00
2023-04-15T08:14:21.621Z,16.80
2023-04-15T08:16:48.378Z,17.30
2023-04-15T08:19:15.077Z,18.10
2023-04-15T08:21:41.964Z,18.80
2023-04-15T08:24:08.754Z,19.10
2023-04-15T08:26:35.710Z,19.20
2023-04-15T08:29:02.738Z,19.20
2023-04-15T08:31:30.103Z,19.10
2023-04-15T08:33:57.875Z,19.20
2023-04-15T08:36:24.564Z,19.10
2023-04-15T08:38:51.305Z,18.50
2023-04-15T08:41:26.215Z,17.60
2023-04-15T08:44:03.690Z,16.80
2023-04-15T08:46:32.015Z,16.10
2023-04-15T08:48:59.279Z,15.50
2023-04-15T08:51:27.183Z,14.90
2023-04-15T08:53:54.380Z,14.60
2023-04-15T08:56:25.169Z,14.20
2023-04-15T08:58:53.260Z,13.80
2023-04-15T09:01:20.650Z,13.40
2023-04-15T09:03:50.068Z,13.10
2023-04-15T09:06:17.826Z,12.70
2023-04-15T09:08:44.984Z,12.40
2023-04-15T09:11:12.299Z,12.10
2023-04-15T09:13:39.609Z,12.00
2023-04-15T09:16:07.107Z,12.00
2023-04-15T09:18:35.613Z,12.10
2023-04-15T09:21:08.752Z,12.20
2023-04-15T09:23:36.204Z,12.30
2023-04-15T09:26:03.674Z,12.40
2023-04-15T09:28:31.062Z,12.50
2023-04-15T09:30:59.590Z,12.70
2023-04-15T09:33:27.409Z,12.80
2023-04-15T09:36:05.609Z,12.90
2023-04-15T09:38:32.861Z,13.10
2023-04-15T09:40:59.855Z,13.20
2023-04-15T09:43:41.270Z,13.40
2023-04-15T09:46:08.112Z,13.50
2023-04-15T09:48:34.922Z,13.50
2023-04-15T09:51:02.290Z,13.70
2023-04-15T09:53:31.264Z,13.80
2023-04-15T09:56:03.382Z,13.90
2023-04-15T09:58:31.796Z,14.00
2023-04-15T10:01:00.050Z,13.90
2023-04-15T10:03:30.284Z,13.70
2023-04-15T10:05:58.938Z,13.50
2023-04-15T10:08:29.070Z,13.10
2023-04-15T10:10:56.721Z,12.90
2023-04-15T10:13:30.324Z,12.70
2023-04-15T10:16:07.295Z,12.60
2023-04-15T10:18:37.938Z,12.50
2023-04-15T10:21:06.065Z,12.50
2023-04-15T10:23:33.682Z,12.40
2023-04-15T10:26:01.584Z,12.40
2023-04-15T10:28:28.538Z,12.40
2023-04-15T10:30:56.384Z,12.40
2023-04-15T10:33:24.935Z,12.30
2023-04-15T10:35:54.252Z,12.30
2023-04-15T10:38:32.045Z,12.40
2023-04-15T10:41:14.602Z,12.40
2023-04-15T10:43:48.321Z,12.30
2023-04-15T10:46:19.594Z,12.30
2023-04-15T10:48:53.890Z,12.30
2023-04-15T10:51:30.939Z,12.40
2023-04-15T10:53:59.735Z,12.40
2023-04-15T10:56:28.917Z,12.60
2023-04-15T10:58:55.740Z,12.80
2023-04-15T11:01:25.254Z,12.90
2023-04-15T11:03:52.360Z,13.00
2023-04-15T11:06:19.356Z,13.20
2023-04-15T11:08:55.245Z,13.30
2023-04-15T11:11:22.177Z,13.20
2023-04-15T11:13:51.685Z,13.20
2023-04-15T11:16:18.715Z,13.30
2023-04-15T11:18:55.786Z,13.20
2023-04-15T11:21:26.324Z,13.20
2023-04-15T11:23:53.118Z,13.20
2023-04-15T11:26:25.605Z,13.10
2023-04-15T11:28:52.672Z,13.20
2023-04-15T11:31:20.040Z,13.00
2023-04-15T11:33:53.415Z,12.90
2023-04-15T11:36:20.384Z,12.70
2023-04-15T11:38:47.848Z,12.50
2023-04-15T11:41:14.732Z,12.30
2023-04-15T11:43:41.559Z,12.10
2023-04-15T11:46:08.933Z,11.90
2023-04-15T11:48:36.944Z,11.80
2023-04-15T11:51:07.780Z,11.70
2023-04-15T11:53:39.204Z,11.60
2023-04-15T11:56:06.993Z,11.60
2023-04-15T11:58:37.615Z,11.40
2023-04-15T12:01:06.039Z,11.30
2023-04-15T12:03:49.410Z,11.20
2023-04-15T12:06:19.033Z,11.00
2023-04-15T12:09:03.717Z,10.90
2023-04-15T12:11:47.235Z,10.80
2023-04-15T12:14:28.321Z,10.80
2023-04-15T12:17:04.908Z,10.70
2023-04-15T12:19:41.923Z,10.70
2023-04-15T12:22:16.840Z,10.70
2023-04-15T12:27:39.027Z,10.70
2023-04-15T12:30:06.632Z,10.70
2023-04-15T12:32:35.872Z,10.80
2023-04-15T12:35:02.749Z,10.80
2023-04-15T12:37:29.631Z,10.80
2023-04-15T12:39:56.457Z,10.90
2023-04-15T12:42:23.215Z,10.90
2023-04-15T12:44:49.967Z,11.00
2023-04-15T12:47:16.920Z,11.10
2023-04-15T12:49:43.824Z,11.10
2023-04-15T12:52:11.298Z,11.30
2023-04-15T12:54:39.275Z,11.30
2023-04-15T12:57:07.528Z,11.50
2023-04-15T12:59:35.194Z,11.60
2023-04-15T13:02:03.377Z,11.70
2023-04-15T13:04:31.097Z,11.80
2023-04-15T13:06:58.456Z,11.80
2023-04-15T13:09:25.283Z,11.80
2023-04-15T13:11:52.842Z,11.70
2023-04-15T13:14:19.802Z,11.60
2023-04-15T13:16:47.258Z,11.50
2023-04-15T13:19:14.391Z,11.30
2023-04-15T13:21:41.463Z,11.20
2023-04-15T13:24:09.442Z,11.10
2023-04-15T13:26:36.394Z,11.00
2023-04-15T13:29:03.416Z,11.00
2023-04-15T13:31:30.629Z,10.90
2023-04-15T13:33:57.895Z,10.90
2023-04-15T13:36:24.944Z,10.90
2023-04-15T13:38:52.038Z,10.90
2023-04-15T13:41:20.032Z,10.90
2023-04-15T13:43:47.333Z,10.90
2023-04-15T13:46:14.676Z,11.00
2023-04-15T13:48:42.315Z,11.00
2023-04-15T13:51:09.230Z,10.90
2023-04-15T13:53:38.771Z,10.90
2023-04-15T13:56:08.107Z,10.80
2023-04-15T13:58:34.941Z,10.70
2023-04-15T14:01:04.649Z,10.60
2023-04-15T14:03:35.873Z,10.50
2023-04-15T14:06:03.194Z,10.40
2023-04-15T14:08:30.870Z,10.40
2023-04-15T14:10:57.875Z,10.30
2023-04-15T14:13:24.949Z,10.30
2023-04-15T14:15:51.964Z,10.30
2023-04-15T14:18:19.096Z,10.40
2023-04-15T14:20:46.503Z,10.40
2023-04-15T14:23:13.453Z,10.50
2023-04-15T14:25:40.429Z,10.50
2023-04-15T14:28:07.790Z,10.60
2023-04-15T14:30:34.754Z,10.70
2023-04-15T14:33:01.814Z,10.70
2023-04-15T14:35:28.960Z,10.70
2023-04-15T14:37:56.119Z,10.70
2023-04-15T14:40:23.021Z,10.70
2023-04-15T14:42:49.990Z,10.80
2023-04-15T14:45:17.866Z,10.80
2023-04-15T14:47:45.094Z,10.80
2023-04-15T14:50:12.435Z,10.80
2023-04-15T14:52:39.705Z,10.80
2023-04-15T14:55:07.884Z,10.80
2023-04-15T14:57:34.890Z,10.80
2023-04-15T15:00:03.567Z,10.80
2023-04-15T15:05:01.533Z,10.80
2023-04-15T15:07:28.879Z,10.80
2023-04-15T15:09:56.657Z,10.70
2023-04-15T15:12:23.808Z,10.70
2023-04-15T15:14:51.218Z,10.70
2023-04-15T15:17:18.871Z,10.60
2023-04-15T15:19:46.042Z,10.50
2023-04-15T15:22:28.518Z,10.40
